createdAt,value
2022-08-31T10:35:56.973Z,22.98
2022-08-31T10:36:56.959Z,22.97
2022-08-31T10:37:56.942Z,23.10
2022-08-31T10:38:56.925Z,23.12
2022-08-31T10:39:56.908Z,23.38
2022-08-31T10:40:56.898Z,23.51
2022-08-31T10:41:56.879Z,23.63
2022-08-31T10:42:56.859Z,23.70
2022-08-31T10:43:56.843Z,23.93
2022-08-31T10:44:56.846Z,24.18
2022-08-31T10:45:56.858Z,24.46
2022-08-31T10:46:56.807Z,24.61
2022-08-31T10:47:56.789Z,24.46
2022-08-31T10:48:56.779Z,23.95
2022-08-31T10:49:56.759Z,24.09
2022-08-31T10:50:56.768Z,24.06
2022-08-31T10:51:56.751Z,24.18
2022-08-31T10:53:01.841Z,24.16
2022-08-31T10:53:56.711Z,24.18
2022-08-31T10:54:56.692Z,24.25
2022-08-31T10:55:56.691Z,24.12
2022-08-31T10:56:56.670Z,24.49
2022-08-31T10:57:56.650Z,24.62
2022-08-31T10:58:56.637Z,24.52
2022-08-31T10:59:56.626Z,24.50
2022-08-31T11:00:56.667Z,24.65
2022-08-31T11:01:56.610Z,24.91
2022-08-31T11:02:56.586Z,25.09
2022-08-31T11:03:56.587Z,24.85
2022-08-31T11:04:56.624Z,24.42
2022-08-31T11:05:56.593Z,24.09
2022-08-31T11:06:56.536Z,24.10
2022-08-31T11:07:56.550Z,24.15
2022-08-31T11:08:56.518Z,24.09
2022-08-31T11:09:56.497Z,23.93
2022-08-31T11:10:56.492Z,23.63
2022-08-31T11:11:56.490Z,23.90
2022-08-31T11:12:57.593Z,23.80
2022-08-31T11:13:56.450Z,23.63
2022-08-31T11:14:56.447Z,23.72
2022-08-31T11:15:56.471Z,23.93
2022-08-31T11:16:56.429Z,23.97
2022-08-31T11:17:56.391Z,23.76
2022-08-31T11:18:56.385Z,23.68
2022-08-31T11:19:56.379Z,23.79
2022-08-31T11:20:56.354Z,23.85
2022-08-31T11:21:56.356Z,24.02
2022-08-31T11:22:56.328Z,24.16
2022-08-31T11:23:56.328Z,23.85
2022-08-31T11:24:56.305Z,23.68
2022-08-31T11:25:56.293Z,23.75
2022-08-31T11:26:56.298Z,23.69
2022-08-31T11:27:56.270Z,23.88
2022-08-31T11:28:56.257Z,23.84
2022-08-31T11:29:56.234Z,23.91
2022-08-31T11:30:56.327Z,23.83
2022-08-31T11:31:56.227Z,23.72
2022-08-31T11:32:56.198Z,23.85
2022-08-31T11:34:15.055Z,23.84
2022-08-31T11:34:56.172Z,23.94
2022-08-31T11:35:56.170Z,24.10
2022-08-31T11:36:56.163Z,24.67
2022-08-31T11:37:56.231Z,25.62
2022-08-31T11:38:56.129Z,25.95
2022-08-31T11:39:56.120Z,26.23
2022-08-31T11:40:56.099Z,25.69
2022-08-31T11:41:56.164Z,24.81
2022-08-31T11:42:56.075Z,24.53
2022-08-31T11:43:56.055Z,24.53
2022-08-31T11:44:56.041Z,24.49
2022-08-31T11:45:56.107Z,24.58
2022-08-31T11:46:56.028Z,24.81
2022-08-31T11:47:56.014Z,24.90
2022-08-31T11:48:56.005Z,24.88
2022-08-31T11:49:55.979Z,24.76
2022-08-31T11:50:55.970Z,24.96
2022-08-31T11:51:55.965Z,25.08
2022-08-31T11:52:55.946Z,25.18
2022-08-31T11:53:55.936Z,25.08
2022-08-31T11:54:55.925Z,25.15
2022-08-31T11:55:55.913Z,24.91
2022-08-31T11:56:55.911Z,24.99
2022-08-31T11:57:55.875Z,25.06
2022-08-31T11:58:55.863Z,25.09
2022-08-31T11:59:55.853Z,24.73
2022-08-31T12:00:55.851Z,24.98
2022-08-31T12:01:55.851Z,25.03
2022-08-31T12:02:55.859Z,25.25
2022-08-31T12:03:55.800Z,25.20
2022-08-31T12:04:55.836Z,25.38
2022-08-31T12:05:55.785Z,25.55
2022-08-31T12:06:55.776Z,25.47
2022-08-31T12:07:55.758Z,25.39
2022-08-31T12:08:55.737Z,25.82
2022-08-31T12:09:55.725Z,26.02
2022-08-31T12:10:55.721Z,25.88
2022-08-31T12:11:55.724Z,25.39
2022-08-31T12:12:55.698Z,25.58
2022-08-31T12:13:55.689Z,25.79
2022-08-31T12:14:55.666Z,25.67
2022-08-31T12:15:55.685Z,25.87
2022-08-31T12:16:55.653Z,26.06
2022-08-31T12:17:55.637Z,26.06
2022-08-31T12:18:55.614Z,26.39
2022-08-31T12:19:59.116Z,26.57
2022-08-31T12:20:55.597Z,26.52
2022-08-31T12:21:55.589Z,26.77
2022-08-31T12:22:55.575Z,26.76
2022-08-31T12:23:55.556Z,27.13
2022-08-31T12:24:55.553Z,26.89
2022-08-31T12:25:55.542Z,26.57
2022-08-31T12:26:55.529Z,26.26
2022-08-31T12:27:55.506Z,26.23
2022-08-31T12:28:55.493Z,26.10
2022-08-31T12:33:27.162Z,24.55
2022-08-31T12:34:27.121Z,24.47
2022-08-31T12:35:27.098Z,24.64
2022-08-31T12:36:27.100Z,25.14
2022-08-31T12:37:27.079Z,25.94
2022-08-31T12:38:27.066Z,26.94
2022-08-31T12:39:27.060Z,27.00
2022-08-31T12:40:27.110Z,26.58
2022-08-31T12:41:27.042Z,27.19
2022-08-31T12:42:27.036Z,26.73
2022-08-31T12:43:27.013Z,27.22
2022-08-31T12:44:26.989Z,27.17
2022-08-31T12:45:26.976Z,27.19
2022-08-31T12:46:27.034Z,27.75
2022-08-31T12:47:26.953Z,28.48
2022-08-31T12:48:26.950Z,28.74
2022-08-31T12:49:26.945Z,29.33
2022-08-31T12:50:26.918Z,29.60
2022-08-31T12:51:26.916Z,29.78
2022-08-31T12:52:26.896Z,29.53
2022-08-31T12:53:26.890Z,29.71
2022-08-31T12:54:26.871Z,29.52
2022-08-31T12:55:26.859Z,29.57
2022-08-31T12:56:26.872Z,29.31
2022-08-31T12:57:27.125Z,29.09
2022-08-31T12:58:26.832Z,28.71
2022-08-31T12:59:40.717Z,28.25
2022-08-31T13:00:26.808Z,27.93
2022-08-31T13:01:26.927Z,27.41
2022-08-31T13:02:27.023Z,27.13
2022-08-31T13:03:26.774Z,27.41
2022-08-31T13:04:26.772Z,28.19
2022-08-31T13:05:26.761Z,29.02
2022-08-31T13:06:26.748Z,29.42
2022-08-31T13:07:26.741Z,29.73
2022-08-31T13:08:26.718Z,29.98
2022-08-31T13:09:26.718Z,29.65
2022-08-31T13:10:26.697Z,30.02
2022-08-31T13:11:33.109Z,30.76
2022-08-31T13:12:26.685Z,30.64
2022-08-31T13:13:26.664Z,29.31
2022-08-31T13:36:47.753Z,25.52
2022-08-31T13:37:47.731Z,26.13
2022-08-31T13:38:47.727Z,27.13
2022-08-31T13:39:47.704Z,27.92
2022-08-31T13:40:47.739Z,28.85
2022-08-31T13:41:47.702Z,29.87
2022-08-31T13:42:47.675Z,30.37
2022-08-31T13:43:47.654Z,30.70
2022-08-31T13:44:47.649Z,30.75
2022-08-31T13:45:47.684Z,30.00
2022-08-31T13:46:47.669Z,28.98
2022-08-31T13:47:57.059Z,29.45
2022-08-31T13:48:47.606Z,29.57
2022-08-31T13:49:47.598Z,30.07
2022-08-31T13:50:51.919Z,30.45
2022-08-31T13:51:47.586Z,30.22
2022-08-31T13:52:59.513Z,30.39
2022-08-31T13:53:47.554Z,30.83
2022-08-31T13:54:47.542Z,31.48
2022-08-31T13:55:47.529Z,31.72
2022-08-31T13:56:47.534Z,31.44
2022-08-31T13:57:47.527Z,31.09
2022-08-31T13:58:47.493Z,30.98
2022-08-31T13:59:47.487Z,31.34
2022-08-31T14:00:47.590Z,31.29
2022-08-31T14:01:47.493Z,31.69
2022-08-31T14:02:47.509Z,31.89
2022-08-31T14:03:47.454Z,32.22
2022-08-31T14:04:47.451Z,31.89
2022-08-31T14:05:47.442Z,32.22
2022-08-31T14:06:47.448Z,32.32
2022-08-31T14:07:47.431Z,32.38
2022-08-31T14:08:47.415Z,31.78
2022-08-31T14:09:47.404Z,32.21
2022-08-31T14:10:47.394Z,32.43
2022-08-31T14:11:47.407Z,32.48
2022-08-31T14:12:47.389Z,32.21
2022-08-31T14:13:47.366Z,31.48
2022-08-31T14:14:47.361Z,30.83
2022-08-31T14:15:47.364Z,30.42
2022-08-31T14:16:52.339Z,31.07
2022-08-31T14:18:24.027Z,31.69
2022-08-31T14:18:47.345Z,31.91
2022-08-31T14:19:47.336Z,32.57
2022-08-31T14:21:10.246Z,32.81
2022-08-31T14:21:47.315Z,32.82
2022-08-31T14:22:47.324Z,32.35
2022-08-31T14:23:47.299Z,31.93
2022-08-31T14:24:47.302Z,31.95
2022-08-31T14:25:47.285Z,31.39
2022-08-31T14:26:47.277Z,31.43
2022-08-31T14:27:47.278Z,31.38
2022-08-31T14:28:47.262Z,30.76
2022-08-31T14:29:47.272Z,30.27
2022-08-31T14:30:47.293Z,30.43
2022-08-31T14:31:47.248Z,30.54
2022-08-31T14:32:47.261Z,30.46
2022-08-31T14:33:47.235Z,30.10
2022-08-31T14:34:47.238Z,31.07
2022-08-31T14:35:47.221Z,31.68
2022-08-31T14:36:47.281Z,32.08
2022-08-31T14:37:47.217Z,31.86
2022-08-31T14:38:47.202Z,31.06
2022-08-31T14:44:51.916Z,28.09
2022-08-31T14:45:51.926Z,28.14
2022-08-31T14:46:51.914Z,28.59
2022-08-31T14:47:51.898Z,28.51
2022-08-31T14:48:51.873Z,28.17
2022-08-31T14:49:51.863Z,27.94
2022-08-31T14:52:10.319Z,27.84
2022-08-31T15:41:24.916Z,25.82
2022-08-31T15:42:24.911Z,26.06
2022-08-31T16:00:22.469Z,29.18
2022-08-31T16:01:22.552Z,29.34
2022-08-31T16:02:22.482Z,29.57
2022-08-31T16:03:22.420Z,29.65
2022-08-31T16:04:22.410Z,29.64
2022-08-31T16:05:22.407Z,29.55
2022-08-31T16:06:22.405Z,29.18
2022-08-31T16:09:15.420Z,27.90
2022-08-31T16:10:19.753Z,27.93
